Pensacola Regional Airport Pensacola US
ICAO: KPNS
IATA: PNS
Category: Medium
Scheduled Services: Yes

Elevation: 121 ft
TransAlt. 18000 ft.

Airport Communications:
APP/DEP:118.6
ATIS:121.25
CLNC DEL:123.725
CTAF:119.9
GND:121.9
GAINESVILLE RDO:122.2
TWR:119.9
UNICOM:122.95

KPNS Zoom In..

Runways:

(A) RW 08 length 7000 ft width 150 ft
LOC 110.95 / hdg 80

(B) RW 17 length 7004 ft width 150 ft
ILS 111.10 / hdg 169

(C) RW 26 length 7000 ft width 150 ft
LOC 110.95 / hdg 260

(D) RW 35 length 7004 ft width 150 ft
LOC 110.95 / hdg 349

Location; KPNS
Day. 22 / Time. 02.06 Zulu
* Altimeter: 30.02
* Temperature: 22° c. 71.6°f.
* Wind from: 180° Speed 12 kn.
Dewpoint: 21° c.
Visibility: 1 m.
Clouds: Scattered 2400 ft.
Clouds: Broken 3000 ft.
Clouds: Overcast 4100 ft.
Conditions: Mist.

KPNS 220206Z 18012KT 1 3/4SM R17/4000VP6000FT +TSRA BR SCT024 BKN030 OVC041 22/21 A3002 RMK AO2 WSHFT 0148 LTG DSNT NW P0016 T02220206


Wind From 180°
Speed 12 kn.

 
 
jpsmedia.com for Web Design SOUNDCLOUD worldairports.se 2018   terms of use